sensor_id;sensor_type;location;lat;lon;timestamp;P1;durP1;ratioP1;P2;durP2;ratioP2
8580;SDS011;4328;48.622;9.230;2022-10-22T00:01:01;1.50;;;1.40;;
8580;SDS011;4328;48.622;9.230;2022-10-22T00:03:27;4.57;;;1.77;;
8580;SDS011;4328;48.622;9.230;2022-10-22T00:05:54;2.43;;;1.57;;
8580;SDS011;4328;48.622;9.230;2022-10-22T00:08:20;3.60;;;1.67;;
8580;SDS011;4328;48.622;9.230;2022-10-22T00:10:47;4.43;;;1.33;;
8580;SDS011;4328;48.622;9.230;2022-10-22T00:13:14;3.03;;;1.37;;
8580;SDS011;4328;48.622;9.230;2022-10-22T00:15:41;1.40;;;1.30;;
8580;SDS011;4328;48.622;9.230;2022-10-22T00:18:07;1.73;;;1.50;;
8580;SDS011;4328;48.622;9.230;2022-10-22T00:20:34;2.33;;;1.23;;
8580;SDS011;4328;48.622;9.230;2022-10-22T00:23:00;2.23;;;1.30;;
8580;SDS011;4328;48.622;9.230;2022-10-22T00:25:27;1.50;;;1.20;;
8580;SDS011;4328;48.622;9.230;2022-10-22T00:27:53;1.73;;;1.30;;
8580;SDS011;4328;48.622;9.230;2022-10-22T00:30:21;3.67;;;1.43;;
8580;SDS011;4328;48.622;9.230;2022-10-22T00:32:47;2.80;;;1.20;;
8580;SDS011;4328;48.622;9.230;2022-10-22T00:35:14;2.40;;;1.20;;
8580;SDS011;4328;48.622;9.230;2022-10-22T00:37:40;4.40;;;1.30;;
8580;SDS011;4328;48.622;9.230;2022-10-22T00:40:07;2.10;;;1.20;;
8580;SDS011;4328;48.622;9.230;2022-10-22T00:42:33;3.23;;;1.10;;
8580;SDS011;4328;48.622;9.230;2022-10-22T00:45:04;1.93;;;1.30;;
8580;SDS011;4328;48.622;9.230;2022-10-22T00:47:32;1.47;;;1.10;;
8580;SDS011;4328;48.622;9.230;2022-10-22T00:49:59;2.67;;;1.40;;
8580;SDS011;4328;48.622;9.230;2022-10-22T00:52:27;2.50;;;1.67;;
8580;SDS011;4328;48.622;9.230;2022-10-22T00:54:53;2.83;;;1.07;;
8580;SDS011;4328;48.622;9.230;2022-10-22T00:57:20;1.43;;;1.13;;
8580;SDS011;4328;48.622;9.230;2022-10-22T00:59:47;1.90;;;1.30;;
8580;SDS011;4328;48.622;9.230;2022-10-22T01:02:14;1.50;;;1.10;;
8580;SDS011;4328;48.622;9.230;2022-10-22T01:04:42;2.47;;;1.20;;
8580;SDS011;4328;48.622;9.230;2022-10-22T01:07:09;1.03;;;1.00;;
8580;SDS011;4328;48.622;9.230;2022-10-22T01:09:38;1.23;;;1.13;;
8580;SDS011;4328;48.622;9.230;2022-10-22T01:12:08;4.17;;;1.47;;
8580;SDS011;4328;48.622;9.230;2022-10-22T01:14:39;4.00;;;1.10;;
8580;SDS011;4328;48.622;9.230;2022-10-22T01:17:09;4.30;;;1.13;;
8580;SDS011;4328;48.622;9.230;2022-10-22T01:19:44;3.40;;;1.20;;
8580;SDS011;4328;48.622;9.230;2022-10-22T01:22:14;2.83;;;1.20;;
8580;SDS011;4328;48.622;9.230;2022-10-22T01:24:47;3.27;;;1.30;;
8580;SDS011;4328;48.622;9.230;2022-10-22T01:27:20;1.13;;;1.10;;
8580;SDS011;4328;48.622;9.230;2022-10-22T01:29:51;2.53;;;1.03;;
8580;SDS011;4328;48.622;9.230;2022-10-22T01:32:18;2.20;;;1.20;;
8580;SDS011;4328;48.622;9.230;2022-10-22T01:34:46;1.90;;;1.60;;
8580;SDS011;4328;48.622;9.230;2022-10-22T01:37:13;1.17;;;1.07;;
8580;SDS011;4328;48.622;9.230;2022-10-22T01:39:41;2.97;;;1.30;;
8580;SDS011;4328;48.622;9.230;2022-10-22T01:42:09;1.60;;;0.80;;
8580;SDS011;4328;48.622;9.230;2022-10-22T01:44:36;2.67;;;1.30;;
8580;SDS011;4328;48.622;9.230;2022-10-22T01:47:10;1.20;;;0.90;;
8580;SDS011;4328;48.622;9.230;2022-10-22T01:49:43;1.80;;;0.97;;
8580;SDS011;4328;48.622;9.230;2022-10-22T01:52:19;1.00;;;1.00;;
8580;SDS011;4328;48.622;9.230;2022-10-22T01:54:54;0.87;;;0.80;;
8580;SDS011;4328;48.622;9.230;2022-10-22T01:57:27;0.90;;;0.77;;
8580;SDS011;4328;48.622;9.230;2022-10-22T01:59:56;1.00;;;1.00;;
8580;SDS011;4328;48.622;9.230;2022-10-22T02:02:30;1.73;;;1.10;;
8580;SDS011;4328;48.622;9.230;2022-10-22T02:04:59;0.70;;;0.70;;
8580;SDS011;4328;48.622;9.230;2022-10-22T02:07:27;3.83;;;0.97;;
8580;SDS011;4328;48.622;9.230;2022-10-22T02:09:56;2.70;;;0.80;;
8580;SDS011;4328;48.622;9.230;2022-10-22T02:12:23;1.43;;;0.90;;
8580;SDS011;4328;48.622;9.230;2022-10-22T02:14:51;1.83;;;0.90;;
8580;SDS011;4328;48.622;9.230;2022-10-22T02:17:18;1.50;;;1.13;;
8580;SDS011;4328;48.622;9.230;2022-10-22T02:19:49;1.77;;;1.00;;
8580;SDS011;4328;48.622;9.230;2022-10-22T02:22:17;1.60;;;0.90;;
8580;SDS011;4328;48.622;9.230;2022-10-22T02:24:44;2.57;;;1.00;;
8580;SDS011;4328;48.622;9.230;2022-10-22T02:27:12;2.57;;;1.03;;
8580;SDS011;4328;48.622;9.230;2022-10-22T02:29:45;1.30;;;0.90;;
8580;SDS011;4328;48.622;9.230;2022-10-22T02:32:14;2.30;;;0.70;;
8580;SDS011;4328;48.622;9.230;2022-10-22T02:34:43;0.80;;;0.80;;
8580;SDS011;4328;48.622;9.230;2022-10-22T02:37:12;1.40;;;0.90;;
8580;SDS011;4328;48.622;9.230;2022-10-22T02:39:38;2.97;;;0.70;;
8580;SDS011;4328;48.622;9.230;2022-10-22T02:42:05;2.37;;;0.97;;
8580;SDS011;4328;48.622;9.230;2022-10-22T02:44:32;2.47;;;0.80;;
8580;SDS011;4328;48.622;9.230;2022-10-22T02:46:58;1.93;;;0.90;;
8580;SDS011;4328;48.622;9.230;2022-10-22T02:49:25;2.80;;;0.80;;
8580;SDS011;4328;48.622;9.230;2022-10-22T02:51:51;2.43;;;1.03;;
8580;SDS011;4328;48.622;9.230;2022-10-22T02:54:19;0.80;;;0.80;;
8580;SDS011;4328;48.622;9.230;2022-10-22T02:56:45;1.67;;;0.90;;
8580;SDS011;4328;48.622;9.230;2022-10-22T02:59:11;0.60;;;0.60;;
8580;SDS011;4328;48.622;9.230;2022-10-22T03:01:38;2.67;;;0.77;;
8580;SDS011;4328;48.622;9.230;2022-10-22T03:04:04;2.37;;;0.80;;
8580;SDS011;4328;48.622;9.230;2022-10-22T03:06:31;1.13;;;0.90;;
8580;SDS011;4328;48.622;9.230;2022-10-22T03:08:57;1.57;;;0.80;;
8580;SDS011;4328;48.622;9.230;2022-10-22T03:11:25;2.80;;;0.90;;
8580;SDS011;4328;48.622;9.230;2022-10-22T03:13:51;0.80;;;0.80;;
8580;SDS011;4328;48.622;9.230;2022-10-22T03:16:18;0.80;;;0.80;;
8580;SDS011;4328;48.622;9.230;2022-10-22T03:18:44;1.37;;;0.70;;
8580;SDS011;4328;48.622;9.230;2022-10-22T03:21:11;1.00;;;0.60;;
8580;SDS011;4328;48.622;9.230;2022-10-22T03:23:39;0.70;;;0.70;;
8580;SDS011;4328;48.622;9.230;2022-10-22T03:26:07;1.73;;;0.50;;
8580;SDS011;4328;48.622;9.230;2022-10-22T03:28:35;2.83;;;0.70;;
8580;SDS011;4328;48.622;9.230;2022-10-22T03:31:02;0.63;;;0.60;;
8580;SDS011;4328;48.622;9.230;2022-10-22T03:33:28;0.73;;;0.70;;
8580;SDS011;4328;48.622;9.230;2022-10-22T03:35:54;2.07;;;0.90;;
8580;SDS011;4328;48.622;9.230;2022-10-22T03:38:21;2.17;;;0.90;;
8580;SDS011;4328;48.622;9.230;2022-10-22T03:40:47;3.17;;;0.70;;
8580;SDS011;4328;48.622;9.230;2022-10-22T03:43:14;2.13;;;0.80;;
8580;SDS011;4328;48.622;9.230;2022-10-22T03:45:42;1.73;;;0.70;;
8580;SDS011;4328;48.622;9.230;2022-10-22T03:48:08;1.20;;;0.50;;
8580;SDS011;4328;48.622;9.230;2022-10-22T03:50:34;2.00;;;0.57;;
8580;SDS011;4328;48.622;9.230;2022-10-22T03:53:01;1.50;;;0.60;;
8580;SDS011;4328;48.622;9.230;2022-10-22T03:55:27;2.07;;;1.23;;
8580;SDS011;4328;48.622;9.230;2022-10-22T03:57:53;0.83;;;0.70;;
8580;SDS011;4328;48.622;9.230;2022-10-22T04:00:20;2.73;;;0.60;;
8580;SDS011;4328;48.622;9.230;2022-10-22T04:02:48;2.67;;;0.70;;
8580;SDS011;4328;48.622;9.230;2022-10-22T04:05:14;0.50;;;0.50;;
8580;SDS011;4328;48.622;9.230;2022-10-22T04:07:40;0.67;;;0.67;;
8580;SDS011;4328;48.622;9.230;2022-10-22T04:10:07;1.93;;;0.83;;
8580;SDS011;4328;48.622;9.230;2022-10-22T04:12:34;1.53;;;0.67;;
8580;SDS011;4328;48.622;9.230;2022-10-22T04:15:00;2.63;;;0.70;;
8580;SDS011;4328;48.622;9.230;2022-10-22T04:17:29;1.93;;;0.60;;
8580;SDS011;4328;48.622;9.230;2022-10-22T04:19:59;1.67;;;0.60;;
8580;SDS011;4328;48.622;9.230;2022-10-22T04:22:25;1.03;;;0.63;;
8580;SDS011;4328;48.622;9.230;2022-10-22T04:24:51;0.80;;;0.80;;
8580;SDS011;4328;48.622;9.230;2022-10-22T04:27:18;0.60;;;0.60;;
8580;SDS011;4328;48.622;9.230;2022-10-22T04:29:44;1.13;;;0.80;;
8580;SDS011;4328;48.622;9.230;2022-10-22T04:32:11;0.80;;;0.80;;
8580;SDS011;4328;48.622;9.230;2022-10-22T04:34:37;0.60;;;0.60;;
8580;SDS011;4328;48.622;9.230;2022-10-22T04:37:05;1.47;;;0.60;;
8580;SDS011;4328;48.622;9.230;2022-10-22T04:39:31;0.70;;;0.50;;
8580;SDS011;4328;48.622;9.230;2022-10-22T04:41:57;1.50;;;0.67;;
8580;SDS011;4328;48.622;9.230;2022-10-22T04:44:24;1.47;;;0.70;;
8580;SDS011;4328;48.622;9.230;2022-10-22T04:46:50;3.57;;;1.00;;
8580;SDS011;4328;48.622;9.230;2022-10-22T04:49:17;0.60;;;0.60;;
8580;SDS011;4328;48.622;9.230;2022-10-22T04:51:43;1.00;;;0.80;;
8580;SDS011;4328;48.622;9.230;2022-10-22T04:54:11;1.53;;;0.63;;
8580;SDS011;4328;48.622;9.230;2022-10-22T04:56:38;4.10;;;0.93;;
8580;SDS011;4328;48.622;9.230;2022-10-22T04:59:05;1.40;;;0.80;;
8580;SDS011;4328;48.622;9.230;2022-10-22T05:01:32;4.03;;;0.90;;
8580;SDS011;4328;48.622;9.230;2022-10-22T05:04:00;0.87;;;0.87;;
8580;SDS011;4328;48.622;9.230;2022-10-22T05:06:28;0.67;;;0.67;;
8580;SDS011;4328;48.622;9.230;2022-10-22T05:08:55;2.37;;;0.70;;
8580;SDS011;4328;48.622;9.230;2022-10-22T05:11:24;2.00;;;0.77;;
8580;SDS011;4328;48.622;9.230;2022-10-22T05:13:52;1.30;;;0.70;;
8580;SDS011;4328;48.622;9.230;2022-10-22T05:16:18;1.93;;;0.90;;
8580;SDS011;4328;48.622;9.230;2022-10-22T05:18:44;2.00;;;0.80;;
8580;SDS011;4328;48.622;9.230;2022-10-22T05:21:12;1.30;;;0.90;;
8580;SDS011;4328;48.622;9.230;2022-10-22T05:23:39;2.40;;;0.80;;
8580;SDS011;4328;48.622;9.230;2022-10-22T05:26:06;7.23;;;1.03;;
8580;SDS011;4328;48.622;9.230;2022-10-22T05:28:34;1.13;;;0.70;;
8580;SDS011;4328;48.622;9.230;2022-10-22T05:31:01;4.30;;;0.90;;
8580;SDS011;4328;48.622;9.230;2022-10-22T05:33:28;1.27;;;0.80;;
8580;SDS011;4328;48.622;9.230;2022-10-22T05:35:55;4.47;;;1.10;;
8580;SDS011;4328;48.622;9.230;2022-10-22T05:38:21;3.57;;;0.80;;
8580;SDS011;4328;48.622;9.230;2022-10-22T05:40:48;0.80;;;0.80;;
8580;SDS011;4328;48.622;9.230;2022-10-22T05:43:23;0.70;;;0.70;;
8580;SDS011;4328;48.622;9.230;2022-10-22T05:45:51;3.10;;;0.90;;
8580;SDS011;4328;48.622;9.230;2022-10-22T05:48:17;2.10;;;0.80;;
8580;SDS011;4328;48.622;9.230;2022-10-22T05:50:44;0.60;;;0.60;;
8580;SDS011;4328;48.622;9.230;2022-10-22T05:53:14;2.00;;;0.80;;
8580;SDS011;4328;48.622;9.230;2022-10-22T05:55:41;1.53;;;0.90;;
8580;SDS011;4328;48.622;9.230;2022-10-22T05:58:08;2.07;;;0.80;;
8580;SDS011;4328;48.622;9.230;2022-10-22T06:00:34;2.03;;;0.70;;
8580;SDS011;4328;48.622;9.230;2022-10-22T06:03:02;1.70;;;0.87;;
8580;SDS011;4328;48.622;9.230;2022-10-22T06:05:29;1.10;;;0.70;;
8580;SDS011;4328;48.622;9.230;2022-10-22T06:07:55;2.30;;;0.70;;
8580;SDS011;4328;48.622;9.230;2022-10-22T06:10:22;1.57;;;0.70;;
8580;SDS011;4328;48.622;9.230;2022-10-22T06:12:49;1.83;;;0.83;;
8580;SDS011;4328;48.622;9.230;2022-10-22T06:15:16;3.80;;;1.00;;
8580;SDS011;4328;48.622;9.230;2022-10-22T06:17:42;2.63;;;0.90;;
8580;SDS011;4328;48.622;9.230;2022-10-22T06:20:11;2.40;;;0.70;;
8580;SDS011;4328;48.622;9.230;2022-10-22T06:22:37;0.77;;;0.70;;
8580;SDS011;4328;48.622;9.230;2022-10-22T06:25:04;1.23;;;0.80;;
8580;SDS011;4328;48.622;9.230;2022-10-22T06:27:32;2.60;;;1.10;;
8580;SDS011;4328;48.622;9.230;2022-10-22T06:29:58;1.30;;;1.20;;
8580;SDS011;4328;48.622;9.230;2022-10-22T06:32:25;2.50;;;0.90;;
8580;SDS011;4328;48.622;9.230;2022-10-22T06:34:51;1.87;;;0.80;;
8580;SDS011;4328;48.622;9.230;2022-10-22T06:37:19;2.43;;;0.93;;
8580;SDS011;4328;48.622;9.230;2022-10-22T06:39:45;1.03;;;0.80;;
8580;SDS011;4328;48.622;9.230;2022-10-22T06:42:12;0.80;;;0.80;;
8580;SDS011;4328;48.622;9.230;2022-10-22T06:44:38;0.80;;;0.80;;
8580;SDS011;4328;48.622;9.230;2022-10-22T06:47:05;2.73;;;1.13;;
8580;SDS011;4328;48.622;9.230;2022-10-22T06:49:31;0.90;;;0.90;;
8580;SDS011;4328;48.622;9.230;2022-10-22T06:51:58;2.90;;;1.03;;
8580;SDS011;4328;48.622;9.230;2022-10-22T06:54:25;1.53;;;0.80;;
8580;SDS011;4328;48.622;9.230;2022-10-22T06:56:52;0.70;;;0.70;;
8580;SDS011;4328;48.622;9.230;2022-10-22T06:59:18;0.80;;;0.80;;
8580;SDS011;4328;48.622;9.230;2022-10-22T07:01:44;3.67;;;0.80;;
8580;SDS011;4328;48.622;9.230;2022-10-22T07:04:11;1.07;;;0.90;;
8580;SDS011;4328;48.622;9.230;2022-10-22T07:06:37;4.53;;;1.00;;
8580;SDS011;4328;48.622;9.230;2022-10-22T07:09:04;2.07;;;0.93;;
8580;SDS011;4328;48.622;9.230;2022-10-22T07:11:35;0.77;;;0.57;;
8580;SDS011;4328;48.622;9.230;2022-10-22T07:14:03;1.00;;;1.00;;
8580;SDS011;4328;48.622;9.230;2022-10-22T07:16:30;3.17;;;0.90;;
8580;SDS011;4328;48.622;9.230;2022-10-22T07:18:56;3.43;;;1.27;;
8580;SDS011;4328;48.622;9.230;2022-10-22T07:21:23;1.47;;;0.90;;
8580;SDS011;4328;48.622;9.230;2022-10-22T07:23:50;2.10;;;0.90;;
8580;SDS011;4328;48.622;9.230;2022-10-22T07:26:16;3.80;;;0.70;;
8580;SDS011;4328;48.622;9.230;2022-10-22T07:28:46;1.63;;;0.70;;
8580;SDS011;4328;48.622;9.230;2022-10-22T07:31:13;0.90;;;0.90;;
8580;SDS011;4328;48.622;9.230;2022-10-22T07:33:39;1.40;;;0.67;;
8580;SDS011;4328;48.622;9.230;2022-10-22T07:36:06;1.60;;;0.90;;
8580;SDS011;4328;48.622;9.230;2022-10-22T07:38:34;1.30;;;0.70;;
8580;SDS011;4328;48.622;9.230;2022-10-22T07:41:00;2.53;;;0.70;;
8580;SDS011;4328;48.622;9.230;2022-10-22T07:43:27;2.00;;;0.90;;
8580;SDS011;4328;48.622;9.230;2022-10-22T07:45:54;3.03;;;0.90;;
8580;SDS011;4328;48.622;9.230;2022-10-22T07:48:21;2.83;;;0.80;;
8580;SDS011;4328;48.622;9.230;2022-10-22T07:50:48;2.20;;;0.93;;
8580;SDS011;4328;48.622;9.230;2022-10-22T07:53:14;1.40;;;1.17;;
8580;SDS011;4328;48.622;9.230;2022-10-22T07:55:40;1.00;;;0.80;;
8580;SDS011;4328;48.622;9.230;2022-10-22T07:58:07;1.50;;;0.77;;
8580;SDS011;4328;48.622;9.230;2022-10-22T08:00:33;0.80;;;0.80;;
8580;SDS011;4328;48.622;9.230;2022-10-22T08:03:01;1.00;;;0.80;;
8580;SDS011;4328;48.622;9.230;2022-10-22T08:05:27;2.43;;;0.90;;
8580;SDS011;4328;48.622;9.230;2022-10-22T08:07:54;0.70;;;0.70;;
8580;SDS011;4328;48.622;9.230;2022-10-22T08:10:20;1.90;;;0.70;;
8580;SDS011;4328;48.622;9.230;2022-10-22T08:12:46;1.47;;;1.00;;
8580;SDS011;4328;48.622;9.230;2022-10-22T08:15:13;2.67;;;1.10;;
8580;SDS011;4328;48.622;9.230;2022-10-22T08:17:39;1.90;;;1.10;;
8580;SDS011;4328;48.622;9.230;2022-10-22T08:20:08;3.43;;;1.10;;
8580;SDS011;4328;48.622;9.230;2022-10-22T08:22:34;1.00;;;1.00;;
8580;SDS011;4328;48.622;9.230;2022-10-22T08:25:01;4.93;;;1.00;;
8580;SDS011;4328;48.622;9.230;2022-10-22T08:27:32;4.47;;;1.07;;
8580;SDS011;4328;48.622;9.230;2022-10-22T08:29:59;1.43;;;0.80;;
8580;SDS011;4328;48.622;9.230;2022-10-22T08:32:25;0.50;;;0.50;;
8580;SDS011;4328;48.622;9.230;2022-10-22T08:34:52;1.23;;;0.70;;
8580;SDS011;4328;48.622;9.230;2022-10-22T08:37:20;1.83;;;0.60;;
8580;SDS011;4328;48.622;9.230;2022-10-22T08:39:46;2.13;;;0.60;;
8580;SDS011;4328;48.622;9.230;2022-10-22T08:42:19;0.97;;;0.80;;
8580;SDS011;4328;48.622;9.230;2022-10-22T08:44:54;2.60;;;0.70;;
8580;SDS011;4328;48.622;9.230;2022-10-22T08:47:36;1.25;;;0.82;;
8580;SDS011;4328;48.622;9.230;2022-10-22T08:50:04;1.92;;;0.77;;
8580;SDS011;4328;48.622;9.230;2022-10-22T08:52:32;0.70;;;0.70;;
8580;SDS011;4328;48.622;9.230;2022-10-22T08:54:59;2.80;;;0.80;;
8580;SDS011;4328;48.622;9.230;2022-10-22T08:57:41;0.93;;;0.50;;
8580;SDS011;4328;48.622;9.230;2022-10-22T09:00:12;0.82;;;0.60;;
8580;SDS011;4328;48.622;9.230;2022-10-22T09:02:42;1.30;;;0.75;;
8580;SDS011;4328;48.622;9.230;2022-10-22T09:05:14;0.60;;;0.60;;
8580;SDS011;4328;48.622;9.230;2022-10-22T09:07:42;1.30;;;0.60;;
8580;SDS011;4328;48.622;9.230;2022-10-22T09:10:14;0.80;;;0.50;;
8580;SDS011;4328;48.622;9.230;2022-10-22T09:12:40;0.50;;;0.50;;
8580;SDS011;4328;48.622;9.230;2022-10-22T09:15:10;0.60;;;0.60;;
8580;SDS011;4328;48.622;9.230;2022-10-22T09:17:39;2.15;;;0.80;;
8580;SDS011;4328;48.622;9.230;2022-10-22T09:20:08;1.25;;;0.55;;
8580;SDS011;4328;48.622;9.230;2022-10-22T09:22:38;0.75;;;0.70;;
8580;SDS011;4328;48.622;9.230;2022-10-22T09:25:21;0.57;;;0.57;;
8580;SDS011;4328;48.622;9.230;2022-10-22T09:27:59;1.30;;;0.65;;
8580;SDS011;4328;48.622;9.230;2022-10-22T09:30:29;1.63;;;0.63;;
8580;SDS011;4328;48.622;9.230;2022-10-22T09:32:59;1.63;;;0.60;;
8580;SDS011;4328;48.622;9.230;2022-10-22T09:35:27;3.70;;;0.80;;
8580;SDS011;4328;48.622;9.230;2022-10-22T09:37:54;2.15;;;1.05;;
8580;SDS011;4328;48.622;9.230;2022-10-22T09:40:22;1.05;;;0.60;;
8580;SDS011;4328;48.622;9.230;2022-10-22T09:42:49;0.63;;;0.60;;
8580;SDS011;4328;48.622;9.230;2022-10-22T09:45:17;1.23;;;0.68;;
8580;SDS011;4328;48.622;9.230;2022-10-22T09:47:45;1.27;;;0.60;;
8580;SDS011;4328;48.622;9.230;2022-10-22T09:50:23;2.65;;;0.75;;
8580;SDS011;4328;48.622;9.230;2022-10-22T09:52:53;0.60;;;0.60;;
8580;SDS011;4328;48.622;9.230;2022-10-22T09:55:20;1.38;;;0.70;;
8580;SDS011;4328;48.622;9.230;2022-10-22T09:57:52;1.10;;;0.70;;
8580;SDS011;4328;48.622;9.230;2022-10-22T10:00:19;1.83;;;0.80;;
8580;SDS011;4328;48.622;9.230;2022-10-22T10:02:52;0.88;;;0.60;;
8580;SDS011;4328;48.622;9.230;2022-10-22T10:05:19;0.60;;;0.60;;
8580;SDS011;4328;48.622;9.230;2022-10-22T10:07:46;1.95;;;0.73;;
8580;SDS011;4328;48.622;9.230;2022-10-22T10:10:15;2.25;;;0.70;;
8580;SDS011;4328;48.622;9.230;2022-10-22T10:12:43;0.68;;;0.60;;
8580;SDS011;4328;48.622;9.230;2022-10-22T10:15:15;0.68;;;0.63;;
8580;SDS011;4328;48.622;9.230;2022-10-22T10:17:45;0.60;;;0.60;;
8580;SDS011;4328;48.622;9.230;2022-10-22T10:20:15;1.35;;;0.60;;
8580;SDS011;4328;48.622;9.230;2022-10-22T10:22:48;0.75;;;0.60;;
8580;SDS011;4328;48.622;9.230;2022-10-22T10:25:25;0.95;;;0.70;;
8580;SDS011;4328;48.622;9.230;2022-10-22T10:27:54;0.73;;;0.57;;
8580;SDS011;4328;48.622;9.230;2022-10-22T10:30:23;1.40;;;0.55;;
8580;SDS011;4328;48.622;9.230;2022-10-22T10:32:57;1.55;;;0.80;;
8580;SDS011;4328;48.622;9.230;2022-10-22T10:35:28;0.70;;;0.70;;
8580;SDS011;4328;48.622;9.230;2022-10-22T10:38:10;0.80;;;0.57;;
8580;SDS011;4328;48.622;9.230;2022-10-22T10:40:42;1.75;;;0.73;;
8580;SDS011;4328;48.622;9.230;2022-10-22T10:43:12;1.65;;;0.60;;
8580;SDS011;4328;48.622;9.230;2022-10-22T10:45:44;3.10;;;0.75;;
8580;SDS011;4328;48.622;9.230;2022-10-22T10:48:22;0.88;;;0.68;;
8580;SDS011;4328;48.622;9.230;2022-10-22T10:50:53;1.70;;;0.50;;
8580;SDS011;4328;48.622;9.230;2022-10-22T10:53:24;1.40;;;0.73;;
8580;SDS011;4328;48.622;9.230;2022-10-22T10:55:56;1.73;;;0.85;;
8580;SDS011;4328;48.622;9.230;2022-10-22T10:58:24;2.92;;;0.80;;
8580;SDS011;4328;48.622;9.230;2022-10-22T11:00:57;2.78;;;0.85;;
8580;SDS011;4328;48.622;9.230;2022-10-22T11:03:33;2.05;;;0.50;;
8580;SDS011;4328;48.622;9.230;2022-10-22T11:06:01;2.35;;;0.82;;
8580;SDS011;4328;48.622;9.230;2022-10-22T11:08:28;1.10;;;0.63;;
8580;SDS011;4328;48.622;9.230;2022-10-22T11:10:56;4.18;;;0.80;;
8580;SDS011;4328;48.622;9.230;2022-10-22T11:13:26;2.80;;;0.80;;
8580;SDS011;4328;48.622;9.230;2022-10-22T11:15:54;0.88;;;0.60;;
8580;SDS011;4328;48.622;9.230;2022-10-22T11:18:26;2.92;;;0.70;;
8580;SDS011;4328;48.622;9.230;2022-10-22T11:20:56;1.33;;;0.70;;
8580;SDS011;4328;48.622;9.230;2022-10-22T11:23:27;2.72;;;0.60;;
8580;SDS011;4328;48.622;9.230;2022-10-22T11:25:54;1.27;;;0.88;;
8580;SDS011;4328;48.622;9.230;2022-10-22T11:28:22;1.88;;;0.70;;
8580;SDS011;4328;48.622;9.230;2022-10-22T11:30:51;3.38;;;0.82;;
8580;SDS011;4328;48.622;9.230;2022-10-22T11:33:20;2.38;;;0.70;;
8580;SDS011;4328;48.622;9.230;2022-10-22T11:35:48;1.60;;;0.60;;
8580;SDS011;4328;48.622;9.230;2022-10-22T11:38:16;1.85;;;0.70;;
8580;SDS011;4328;48.622;9.230;2022-10-22T11:40:45;1.25;;;0.70;;
8580;SDS011;4328;48.622;9.230;2022-10-22T11:43:24;2.20;;;0.70;;
8580;SDS011;4328;48.622;9.230;2022-10-22T11:45:55;1.65;;;0.77;;
8580;SDS011;4328;48.622;9.230;2022-10-22T11:48:24;4.22;;;1.08;;
8580;SDS011;4328;48.622;9.230;2022-10-22T11:50:54;3.33;;;0.80;;
8580;SDS011;4328;48.622;9.230;2022-10-22T11:53:27;1.70;;;0.70;;
8580;SDS011;4328;48.622;9.230;2022-10-22T11:55:56;2.30;;;0.63;;
8580;SDS011;4328;48.622;9.230;2022-10-22T11:58:28;0.85;;;0.60;;
8580;SDS011;4328;48.622;9.230;2022-10-22T12:00:55;1.05;;;0.70;;
8580;SDS011;4328;48.622;9.230;2022-10-22T12:03:23;0.63;;;0.60;;
8580;SDS011;4328;48.622;9.230;2022-10-22T12:06:04;0.63;;;0.60;;
8580;SDS011;4328;48.622;9.230;2022-10-22T12:08:32;1.95;;;0.80;;
8580;SDS011;4328;48.622;9.230;2022-10-22T12:11:02;0.80;;;0.70;;
8580;SDS011;4328;48.622;9.230;2022-10-22T12:13:29;1.38;;;1.00;;
8580;SDS011;4328;48.622;9.230;2022-10-22T12:15:56;2.72;;;0.90;;
8580;SDS011;4328;48.622;9.230;2022-10-22T12:18:24;2.17;;;0.80;;
8580;SDS011;4328;48.622;9.230;2022-10-22T12:20:52;0.60;;;0.60;;
8580;SDS011;4328;48.622;9.230;2022-10-22T12:23:20;0.70;;;0.50;;
8580;SDS011;4328;48.622;9.230;2022-10-22T12:25:49;1.08;;;0.80;;
8580;SDS011;4328;48.622;9.230;2022-10-22T12:28:15;2.20;;;0.80;;
8580;SDS011;4328;48.622;9.230;2022-10-22T12:30:43;2.28;;;0.90;;
8580;SDS011;4328;48.622;9.230;2022-10-22T12:33:17;2.03;;;0.90;;
8580;SDS011;4328;48.622;9.230;2022-10-22T12:35:44;1.15;;;0.85;;
8580;SDS011;4328;48.622;9.230;2022-10-22T12:38:12;0.88;;;0.63;;
8580;SDS011;4328;48.622;9.230;2022-10-22T12:40:40;1.15;;;0.63;;
8580;SDS011;4328;48.622;9.230;2022-10-22T12:43:09;2.70;;;0.60;;
8580;SDS011;4328;48.622;9.230;2022-10-22T12:45:36;1.75;;;0.60;;
8580;SDS011;4328;48.622;9.230;2022-10-22T12:48:04;3.03;;;0.80;;
8580;SDS011;4328;48.622;9.230;2022-10-22T12:50:32;2.25;;;0.80;;
8580;SDS011;4328;48.622;9.230;2022-10-22T12:53:02;0.68;;;0.68;;
8580;SDS011;4328;48.622;9.230;2022-10-22T12:55:29;1.88;;;0.70;;
8580;SDS011;4328;48.622;9.230;2022-10-22T12:57:58;1.98;;;0.95;;
8580;SDS011;4328;48.622;9.230;2022-10-22T13:00:26;1.90;;;0.70;;
8580;SDS011;4328;48.622;9.230;2022-10-22T13:02:53;2.15;;;0.95;;
8580;SDS011;4328;48.622;9.230;2022-10-22T13:05:21;1.13;;;0.80;;
8580;SDS011;4328;48.622;9.230;2022-10-22T13:07:48;0.85;;;0.55;;
8580;SDS011;4328;48.622;9.230;2022-10-22T13:10:17;1.10;;;0.70;;
8580;SDS011;4328;48.622;9.230;2022-10-22T13:12:47;1.65;;;0.68;;
8580;SDS011;4328;48.622;9.230;2022-10-22T13:15:19;1.48;;;0.80;;
8580;SDS011;4328;48.622;9.230;2022-10-22T13:17:46;0.93;;;0.68;;
8580;SDS011;4328;48.622;9.230;2022-10-22T13:20:15;2.88;;;0.90;;
8580;SDS011;4328;48.622;9.230;2022-10-22T13:22:51;1.75;;;0.80;;
8580;SDS011;4328;48.622;9.230;2022-10-22T13:25:20;2.10;;;0.70;;
8580;SDS011;4328;48.622;9.230;2022-10-22T13:27:47;1.67;;;0.80;;
8580;SDS011;4328;48.622;9.230;2022-10-22T13:30:16;2.00;;;0.93;;
8580;SDS011;4328;48.622;9.230;2022-10-22T13:32:47;0.95;;;0.75;;
8580;SDS011;4328;48.622;9.230;2022-10-22T13:35:14;3.00;;;0.90;;
8580;SDS011;4328;48.622;9.230;2022-10-22T13:37:42;1.67;;;0.80;;
8580;SDS011;4328;48.622;9.230;2022-10-22T13:40:10;0.75;;;0.60;;
8580;SDS011;4328;48.622;9.230;2022-10-22T13:42:36;1.10;;;0.80;;
8580;SDS011;4328;48.622;9.230;2022-10-22T13:45:03;2.33;;;0.90;;
8580;SDS011;4328;48.622;9.230;2022-10-22T13:47:30;0.85;;;0.70;;
8580;SDS011;4328;48.622;9.230;2022-10-22T13:49:59;1.98;;;1.00;;
8580;SDS011;4328;48.622;9.230;2022-10-22T13:52:27;1.05;;;0.95;;
8580;SDS011;4328;48.622;9.230;2022-10-22T13:54:54;2.42;;;0.85;;
8580;SDS011;4328;48.622;9.230;2022-10-22T13:57:20;2.55;;;0.90;;
8580;SDS011;4328;48.622;9.230;2022-10-22T13:59:46;1.10;;;0.68;;
8580;SDS011;4328;48.622;9.230;2022-10-22T14:02:13;1.30;;;0.60;;
8580;SDS011;4328;48.622;9.230;2022-10-22T14:04:40;0.77;;;0.60;;
8580;SDS011;4328;48.622;9.230;2022-10-22T14:07:09;2.20;;;1.00;;
8580;SDS011;4328;48.622;9.230;2022-10-22T14:09:37;2.45;;;0.80;;
8580;SDS011;4328;48.622;9.230;2022-10-22T14:12:07;1.35;;;0.80;;
8580;SDS011;4328;48.622;9.230;2022-10-22T14:14:34;2.35;;;0.82;;
8580;SDS011;4328;48.622;9.230;2022-10-22T14:17:02;1.70;;;0.80;;
8580;SDS011;4328;48.622;9.230;2022-10-22T14:19:28;1.77;;;0.80;;
8580;SDS011;4328;48.622;9.230;2022-10-22T14:21:55;1.35;;;0.82;;
8580;SDS011;4328;48.622;9.230;2022-10-22T14:24:23;1.85;;;0.88;;
8580;SDS011;4328;48.622;9.230;2022-10-22T14:26:50;1.42;;;0.80;;
8580;SDS011;4328;48.622;9.230;2022-10-22T14:29:16;5.40;;;0.98;;
8580;SDS011;4328;48.622;9.230;2022-10-22T14:31:42;0.90;;;0.70;;
8580;SDS011;4328;48.622;9.230;2022-10-22T14:34:09;5.72;;;0.88;;
8580;SDS011;4328;48.622;9.230;2022-10-22T14:36:36;2.92;;;0.90;;
8580;SDS011;4328;48.622;9.230;2022-10-22T14:39:02;3.47;;;0.80;;
8580;SDS011;4328;48.622;9.230;2022-10-22T14:41:30;4.05;;;1.00;;
8580;SDS011;4328;48.622;9.230;2022-10-22T14:43:56;6.43;;;1.00;;
8580;SDS011;4328;48.622;9.230;2022-10-22T14:46:23;4.10;;;1.10;;
8580;SDS011;4328;48.622;9.230;2022-10-22T14:48:50;3.08;;;0.85;;
8580;SDS011;4328;48.622;9.230;2022-10-22T14:51:17;1.92;;;0.80;;
8580;SDS011;4328;48.622;9.230;2022-10-22T14:53:43;3.13;;;0.68;;
8580;SDS011;4328;48.622;9.230;2022-10-22T14:56:10;3.50;;;1.00;;
8580;SDS011;4328;48.622;9.230;2022-10-22T14:58:38;3.40;;;1.10;;
8580;SDS011;4328;48.622;9.230;2022-10-22T15:01:05;1.67;;;0.82;;
8580;SDS011;4328;48.622;9.230;2022-10-22T15:03:31;3.55;;;0.88;;
8580;SDS011;4328;48.622;9.230;2022-10-22T15:05:58;5.93;;;0.90;;
8580;SDS011;4328;48.622;9.230;2022-10-22T15:08:24;3.72;;;1.00;;
8580;SDS011;4328;48.622;9.230;2022-10-22T15:10:57;4.80;;;0.90;;
8580;SDS011;4328;48.622;9.230;2022-10-22T15:13:25;7.73;;;1.13;;
8580;SDS011;4328;48.622;9.230;2022-10-22T15:15:52;6.17;;;1.00;;
8580;SDS011;4328;48.622;9.230;2022-10-22T15:18:19;4.37;;;1.10;;
8580;SDS011;4328;48.622;9.230;2022-10-22T15:20:53;2.90;;;0.93;;